sensor_id;sensor_type;location;lat;lon;timestamp;temperature;humidity
76759;DHT22;65701;45.588;5.186;2023-03-26T00:01:47;11.97;68.94
76759;DHT22;65701;45.588;5.186;2023-03-26T00:04:14;11.98;68.69
76759;DHT22;65701;45.588;5.186;2023-03-26T00:06:44;12.03;68.44
76759;DHT22;65701;45.588;5.186;2023-03-26T00:09:14;12.03;67.98
76759;DHT22;65701;45.588;5.186;2023-03-26T00:11:41;12.07;67.69
76759;DHT22;65701;45.588;5.186;2023-03-26T00:14:08;12.08;67.53
76759;DHT22;65701;45.588;5.186;2023-03-26T00:16:34;12.13;67.37
76759;DHT22;65701;45.588;5.186;2023-03-26T00:19:00;12.16;67.25
76759;DHT22;65701;45.588;5.186;2023-03-26T00:21:27;12.17;67.16
76759;DHT22;65701;45.588;5.186;2023-03-26T00:23:55;12.21;67.09
76759;DHT22;65701;45.588;5.186;2023-03-26T00:26:22;12.27;67.05
76759;DHT22;65701;45.588;5.186;2023-03-26T00:28:48;12.30;66.99
76759;DHT22;65701;45.588;5.186;2023-03-26T00:31:15;12.32;66.96
76759;DHT22;65701;45.588;5.186;2023-03-26T00:33:41;12.32;66.93
76759;DHT22;65701;45.588;5.186;2023-03-26T00:36:10;12.35;67.00
76759;DHT22;65701;45.588;5.186;2023-03-26T00:38:36;12.38;66.96
76759;DHT22;65701;45.588;5.186;2023-03-26T00:41:05;12.40;66.90
76759;DHT22;65701;45.588;5.186;2023-03-26T00:43:33;12.41;66.82
76759;DHT22;65701;45.588;5.186;2023-03-26T00:45:59;12.41;66.66
76759;DHT22;65701;45.588;5.186;2023-03-26T00:48:26;12.41;66.56
76759;DHT22;65701;45.588;5.186;2023-03-26T00:50:54;12.41;66.35
76759;DHT22;65701;45.588;5.186;2023-03-26T00:53:20;12.45;66.25
76759;DHT22;65701;45.588;5.186;2023-03-26T00:55:46;12.46;66.17
76759;DHT22;65701;45.588;5.186;2023-03-26T00:58:13;12.45;66.09
76759;DHT22;65701;45.588;5.186;2023-03-26T01:00:46;12.48;66.08
76759;DHT22;65701;45.588;5.186;2023-03-26T01:03:15;12.48;66.09
76759;DHT22;65701;45.588;5.186;2023-03-26T01:05:51;12.49;66.32
76759;DHT22;65701;45.588;5.186;2023-03-26T01:08:43;12.52;66.39
76759;DHT22;65701;45.588;5.186;2023-03-26T01:11:27;12.49;66.37
76759;DHT22;65701;45.588;5.186;2023-03-26T01:13:56;12.45;66.45
76759;DHT22;65701;45.588;5.186;2023-03-26T01:16:42;12.46;66.66
76759;DHT22;65701;45.588;5.186;2023-03-26T01:21:50;12.51;66.71
76759;DHT22;65701;45.588;5.186;2023-03-26T01:24:15;12.55;66.62
76759;DHT22;65701;45.588;5.186;2023-03-26T01:35:39;12.59;66.32
76759;DHT22;65701;45.588;5.186;2023-03-26T01:40:59;12.59;66.20
76759;DHT22;65701;45.588;5.186;2023-03-26T01:46:14;12.58;65.98
76759;DHT22;65701;45.588;5.186;2023-03-26T01:48:42;12.60;66.00
76759;DHT22;65701;45.588;5.186;2023-03-26T01:51:10;12.58;65.96
76759;DHT22;65701;45.588;5.186;2023-03-26T01:53:44;12.56;65.94
76759;DHT22;65701;45.588;5.186;2023-03-26T01:56:12;12.53;65.92
76759;DHT22;65701;45.588;5.186;2023-03-26T02:04:20;12.55;65.77
76759;DHT22;65701;45.588;5.186;2023-03-26T02:09:21;12.58;65.85
76759;DHT22;65701;45.588;5.186;2023-03-26T02:11:49;12.51;65.80
76759;DHT22;65701;45.588;5.186;2023-03-26T02:14:15;12.55;65.80
76759;DHT22;65701;45.588;5.186;2023-03-26T02:16:40;12.51;65.83
76759;DHT22;65701;45.588;5.186;2023-03-26T02:19:11;12.53;65.76
76759;DHT22;65701;45.588;5.186;2023-03-26T02:21:40;12.56;65.75
76759;DHT22;65701;45.588;5.186;2023-03-26T02:24:06;12.52;65.80
76759;DHT22;65701;45.588;5.186;2023-03-26T02:26:33;12.53;65.75
76759;DHT22;65701;45.588;5.186;2023-03-26T02:28:59;12.58;65.73
76759;DHT22;65701;45.588;5.186;2023-03-26T02:31:25;12.56;65.68
76759;DHT22;65701;45.588;5.186;2023-03-26T02:33:54;12.60;65.67
76759;DHT22;65701;45.588;5.186;2023-03-26T02:36:21;12.62;65.65
76759;DHT22;65701;45.588;5.186;2023-03-26T02:38:52;12.65;65.62
76759;DHT22;65701;45.588;5.186;2023-03-26T02:41:18;12.65;65.51
76759;DHT22;65701;45.588;5.186;2023-03-26T02:43:43;12.69;65.51
76759;DHT22;65701;45.588;5.186;2023-03-26T02:46:09;12.70;65.82
76759;DHT22;65701;45.588;5.186;2023-03-26T02:48:35;12.68;66.14
76759;DHT22;65701;45.588;5.186;2023-03-26T02:51:01;12.65;66.43
76759;DHT22;65701;45.588;5.186;2023-03-26T02:53:27;12.63;66.68
76759;DHT22;65701;45.588;5.186;2023-03-26T02:55:56;12.62;66.88
76759;DHT22;65701;45.588;5.186;2023-03-26T02:58:21;12.60;67.12
76759;DHT22;65701;45.588;5.186;2023-03-26T03:00:50;12.59;67.35
76759;DHT22;65701;45.588;5.186;2023-03-26T03:03:28;12.56;67.61
76759;DHT22;65701;45.588;5.186;2023-03-26T03:05:57;12.53;67.81
76759;DHT22;65701;45.588;5.186;2023-03-26T03:08:25;12.52;67.88
76759;DHT22;65701;45.588;5.186;2023-03-26T03:11:17;12.51;67.91
76759;DHT22;65701;45.588;5.186;2023-03-26T03:13:43;12.46;67.91
76759;DHT22;65701;45.588;5.186;2023-03-26T03:16:09;12.49;67.94
76759;DHT22;65701;45.588;5.186;2023-03-26T03:18:35;12.45;67.95
76759;DHT22;65701;45.588;5.186;2023-03-26T03:21:03;12.44;68.00
76759;DHT22;65701;45.588;5.186;2023-03-26T03:23:28;12.45;67.90
76759;DHT22;65701;45.588;5.186;2023-03-26T03:25:56;12.46;67.88
76759;DHT22;65701;45.588;5.186;2023-03-26T03:28:22;12.45;67.76
76759;DHT22;65701;45.588;5.186;2023-03-26T03:30:48;12.44;67.72
76759;DHT22;65701;45.588;5.186;2023-03-26T03:33:18;12.44;67.60
76759;DHT22;65701;45.588;5.186;2023-03-26T03:35:45;12.44;67.54
76759;DHT22;65701;45.588;5.186;2023-03-26T03:38:12;12.42;67.47
76759;DHT22;65701;45.588;5.186;2023-03-26T03:40:37;12.45;67.39
76759;DHT22;65701;45.588;5.186;2023-03-26T03:43:03;12.41;67.26
76759;DHT22;65701;45.588;5.186;2023-03-26T03:45:28;12.41;67.24
76759;DHT22;65701;45.588;5.186;2023-03-26T03:47:54;12.38;67.19
76759;DHT22;65701;45.588;5.186;2023-03-26T03:50:19;12.35;67.28
76759;DHT22;65701;45.588;5.186;2023-03-26T03:52:45;12.40;67.18
76759;DHT22;65701;45.588;5.186;2023-03-26T03:55:10;12.38;67.02
76759;DHT22;65701;45.588;5.186;2023-03-26T03:57:38;12.40;66.93
76759;DHT22;65701;45.588;5.186;2023-03-26T04:00:05;12.38;66.88
76759;DHT22;65701;45.588;5.186;2023-03-26T04:02:33;12.37;66.80
76759;DHT22;65701;45.588;5.186;2023-03-26T04:05:00;12.37;66.72
76759;DHT22;65701;45.588;5.186;2023-03-26T04:07:26;12.35;66.65
76759;DHT22;65701;45.588;5.186;2023-03-26T04:09:52;12.32;66.61
76759;DHT22;65701;45.588;5.186;2023-03-26T04:12:18;12.37;66.56
76759;DHT22;65701;45.588;5.186;2023-03-26T04:14:44;12.34;66.47
76759;DHT22;65701;45.588;5.186;2023-03-26T04:17:10;12.34;66.41
76759;DHT22;65701;45.588;5.186;2023-03-26T04:19:38;12.34;66.30
76759;DHT22;65701;45.588;5.186;2023-03-26T04:22:04;12.30;66.27
76759;DHT22;65701;45.588;5.186;2023-03-26T04:24:31;12.30;66.20
76759;DHT22;65701;45.588;5.186;2023-03-26T04:27:03;12.18;66.20
76759;DHT22;65701;45.588;5.186;2023-03-26T04:29:35;12.28;66.22
76759;DHT22;65701;45.588;5.186;2023-03-26T04:32:02;12.27;66.20
76759;DHT22;65701;45.588;5.186;2023-03-26T04:34:32;12.31;66.23
76759;DHT22;65701;45.588;5.186;2023-03-26T04:37:00;12.32;66.15
76759;DHT22;65701;45.588;5.186;2023-03-26T04:39:26;12.32;66.02
76759;DHT22;65701;45.588;5.186;2023-03-26T04:41:54;12.34;66.03
76759;DHT22;65701;45.588;5.186;2023-03-26T04:44:20;12.31;66.14
76759;DHT22;65701;45.588;5.186;2023-03-26T04:46:49;12.28;66.30
76759;DHT22;65701;45.588;5.186;2023-03-26T04:49:17;12.23;66.38
76759;DHT22;65701;45.588;5.186;2023-03-26T04:51:43;12.21;66.32
76759;DHT22;65701;45.588;5.186;2023-03-26T04:54:12;12.21;66.25
76759;DHT22;65701;45.588;5.186;2023-03-26T04:56:45;12.25;66.40
76759;DHT22;65701;45.588;5.186;2023-03-26T04:59:24;12.21;66.53
76759;DHT22;65701;45.588;5.186;2023-03-26T05:01:51;12.30;66.76
76759;DHT22;65701;45.588;5.186;2023-03-26T05:04:17;12.28;66.88
76759;DHT22;65701;45.588;5.186;2023-03-26T05:06:42;12.24;67.25
76759;DHT22;65701;45.588;5.186;2023-03-26T05:09:08;12.12;67.60
76759;DHT22;65701;45.588;5.186;2023-03-26T05:11:35;12.16;67.91
76759;DHT22;65701;45.588;5.186;2023-03-26T05:14:00;12.12;68.12
76759;DHT22;65701;45.588;5.186;2023-03-26T05:16:27;12.07;68.29
76759;DHT22;65701;45.588;5.186;2023-03-26T05:18:53;12.07;68.59
76759;DHT22;65701;45.588;5.186;2023-03-26T05:21:19;12.07;69.17
76759;DHT22;65701;45.588;5.186;2023-03-26T05:23:45;11.96;69.89
76759;DHT22;65701;45.588;5.186;2023-03-26T05:26:11;11.89;70.66
76759;DHT22;65701;45.588;5.186;2023-03-26T05:28:36;11.89;71.19
76759;DHT22;65701;45.588;5.186;2023-03-26T05:31:02;11.94;71.20
76759;DHT22;65701;45.588;5.186;2023-03-26T05:33:28;11.91;71.51
76759;DHT22;65701;45.588;5.186;2023-03-26T05:38:29;11.82;71.68
76759;DHT22;65701;45.588;5.186;2023-03-26T05:41:03;11.86;71.82
76759;DHT22;65701;45.588;5.186;2023-03-26T05:43:29;11.83;71.84
76759;DHT22;65701;45.588;5.186;2023-03-26T05:45:55;11.90;71.98
76759;DHT22;65701;45.588;5.186;2023-03-26T05:48:21;11.90;72.00
76759;DHT22;65701;45.588;5.186;2023-03-26T05:50:54;11.89;72.24
76759;DHT22;65701;45.588;5.186;2023-03-26T05:53:21;11.85;72.56
76759;DHT22;65701;45.588;5.186;2023-03-26T05:55:48;11.85;72.64
76759;DHT22;65701;45.588;5.186;2023-03-26T05:58:26;11.80;72.70
76759;DHT22;65701;45.588;5.186;2023-03-26T06:01:00;11.77;72.94
76759;DHT22;65701;45.588;5.186;2023-03-26T06:03:30;11.83;73.02
76759;DHT22;65701;45.588;5.186;2023-03-26T06:05:57;11.85;72.99
76759;DHT22;65701;45.588;5.186;2023-03-26T06:08:23;11.77;73.10
76759;DHT22;65701;45.588;5.186;2023-03-26T06:10:48;11.75;73.30
76759;DHT22;65701;45.588;5.186;2023-03-26T06:13:17;11.77;73.54
76759;DHT22;65701;45.588;5.186;2023-03-26T06:15:43;11.77;73.52
76759;DHT22;65701;45.588;5.186;2023-03-26T06:18:08;11.82;73.65
76759;DHT22;65701;45.588;5.186;2023-03-26T06:20:34;11.75;73.59
76759;DHT22;65701;45.588;5.186;2023-03-26T06:22:59;11.77;73.65
76759;DHT22;65701;45.588;5.186;2023-03-26T06:25:25;11.86;73.37
76759;DHT22;65701;45.588;5.186;2023-03-26T06:27:50;11.87;73.35
76759;DHT22;65701;45.588;5.186;2023-03-26T06:30:16;11.86;73.41
76759;DHT22;65701;45.588;5.186;2023-03-26T06:32:41;11.93;73.51
76759;DHT22;65701;45.588;5.186;2023-03-26T06:35:07;11.94;73.48
76759;DHT22;65701;45.588;5.186;2023-03-26T06:37:33;12.03;73.31
76759;DHT22;65701;45.588;5.186;2023-03-26T06:39:58;12.04;73.44
76759;DHT22;65701;45.588;5.186;2023-03-26T06:42:24;11.98;73.62
76759;DHT22;65701;45.588;5.186;2023-03-26T06:44:49;12.00;73.80
76759;DHT22;65701;45.588;5.186;2023-03-26T06:47:15;11.97;73.68
76759;DHT22;65701;45.588;5.186;2023-03-26T06:49:40;12.06;73.84
76759;DHT22;65701;45.588;5.186;2023-03-26T06:52:06;12.03;74.31
76759;DHT22;65701;45.588;5.186;2023-03-26T06:54:32;12.07;74.30
76759;DHT22;65701;45.588;5.186;2023-03-26T06:56:57;12.10;73.97
76759;DHT22;65701;45.588;5.186;2023-03-26T06:59:24;12.14;73.55
76759;DHT22;65701;45.588;5.186;2023-03-26T07:01:50;12.16;73.12
76759;DHT22;65701;45.588;5.186;2023-03-26T07:04:15;12.18;73.00
76759;DHT22;65701;45.588;5.186;2023-03-26T07:06:41;12.17;73.64
76759;DHT22;65701;45.588;5.186;2023-03-26T07:09:06;12.12;74.16
76759;DHT22;65701;45.588;5.186;2023-03-26T07:11:32;12.13;73.60
76759;DHT22;65701;45.588;5.186;2023-03-26T07:13:57;12.16;73.26
76759;DHT22;65701;45.588;5.186;2023-03-26T07:16:24;12.16;73.23
76759;DHT22;65701;45.588;5.186;2023-03-26T07:18:50;12.17;73.36
76759;DHT22;65701;45.588;5.186;2023-03-26T07:21:16;12.13;73.41
76759;DHT22;65701;45.588;5.186;2023-03-26T07:23:42;12.14;73.42
76759;DHT22;65701;45.588;5.186;2023-03-26T07:28:58;12.17;73.55
76759;DHT22;65701;45.588;5.186;2023-03-26T07:31:51;12.16;74.06
76759;DHT22;65701;45.588;5.186;2023-03-26T07:36:59;12.20;73.80
76759;DHT22;65701;45.588;5.186;2023-03-26T07:45:26;12.18;73.60
76759;DHT22;65701;45.588;5.186;2023-03-26T07:47:57;12.13;74.21
76759;DHT22;65701;45.588;5.186;2023-03-26T07:50:23;12.08;74.54
76759;DHT22;65701;45.588;5.186;2023-03-26T07:52:50;12.07;74.76
76759;DHT22;65701;45.588;5.186;2023-03-26T07:55:16;12.17;74.89
76759;DHT22;65701;45.588;5.186;2023-03-26T08:00:39;12.21;74.53
76759;DHT22;65701;45.588;5.186;2023-03-26T08:05:59;12.13;74.25
76759;DHT22;65701;45.588;5.186;2023-03-26T08:11:33;12.10;74.46
76759;DHT22;65701;45.588;5.186;2023-03-26T08:14:19;12.12;74.48
76759;DHT22;65701;45.588;5.186;2023-03-26T08:16:55;12.10;74.54
76759;DHT22;65701;45.588;5.186;2023-03-26T08:19:40;12.13;74.66
76759;DHT22;65701;45.588;5.186;2023-03-26T08:22:48;12.17;74.46
76759;DHT22;65701;45.588;5.186;2023-03-26T08:25:38;12.24;74.25
76759;DHT22;65701;45.588;5.186;2023-03-26T08:30:50;12.31;73.74
76759;DHT22;65701;45.588;5.186;2023-03-26T08:33:20;12.30;73.69
76759;DHT22;65701;45.588;5.186;2023-03-26T08:35:47;12.37;73.59
76759;DHT22;65701;45.588;5.186;2023-03-26T08:38:15;12.41;73.50
76759;DHT22;65701;45.588;5.186;2023-03-26T08:58:03;12.59;73.36
76759;DHT22;65701;45.588;5.186;2023-03-26T09:00:37;12.58;73.61
76759;DHT22;65701;45.588;5.186;2023-03-26T09:11:11;12.68;73.08
76759;DHT22;65701;45.588;5.186;2023-03-26T09:19:41;12.80;72.30
76759;DHT22;65701;45.588;5.186;2023-03-26T09:33:00;12.83;72.11
76759;DHT22;65701;45.588;5.186;2023-03-26T09:35:44;12.90;71.96
76759;DHT22;65701;45.588;5.186;2023-03-26T09:41:04;13.15;71.46
76759;DHT22;65701;45.588;5.186;2023-03-26T09:52:11;13.65;70.66
76759;DHT22;65701;45.588;5.186;2023-03-26T10:00:43;13.70;70.61
76759;DHT22;65701;45.588;5.186;2023-03-26T10:06:20;13.63;70.68
76759;DHT22;65701;45.588;5.186;2023-03-26T10:14:24;13.52;71.23
76759;DHT22;65701;45.588;5.186;2023-03-26T10:17:55;13.50;71.65
76759;DHT22;65701;45.588;5.186;2023-03-26T10:22:34;13.55;71.81
76759;DHT22;65701;45.588;5.186;2023-03-26T10:31:06;13.76;72.16
76759;DHT22;65701;45.588;5.186;2023-03-26T10:33:37;13.96;73.02
76759;DHT22;65701;45.588;5.186;2023-03-26T10:36:29;14.06;73.11
76759;DHT22;65701;45.588;5.186;2023-03-26T10:42:31;14.17;73.02
76759;DHT22;65701;45.588;5.186;2023-03-26T10:53:52;14.35;71.69
76759;DHT22;65701;45.588;5.186;2023-03-26T10:58:50;14.49;71.78
76759;DHT22;65701;45.588;5.186;2023-03-26T11:01:28;14.57;71.72
76759;DHT22;65701;45.588;5.186;2023-03-26T11:07:03;14.69;71.69
76759;DHT22;65701;45.588;5.186;2023-03-26T11:15:26;15.22;72.25
76759;DHT22;65701;45.588;5.186;2023-03-26T11:20:40;15.52;71.61
76759;DHT22;65701;45.588;5.186;2023-03-26T11:28:38;16.00;71.05
76759;DHT22;65701;45.588;5.186;2023-03-26T11:31:27;16.07;70.32
76759;DHT22;65701;45.588;5.186;2023-03-26T11:34:02;16.14;69.93
76759;DHT22;65701;45.588;5.186;2023-03-26T11:36:33;16.33;69.46
76759;DHT22;65701;45.588;5.186;2023-03-26T11:39:03;16.44;68.85
76759;DHT22;65701;45.588;5.186;2023-03-26T11:41:33;16.52;68.39
76759;DHT22;65701;45.588;5.186;2023-03-26T11:44:07;16.47;67.68
76759;DHT22;65701;45.588;5.186;2023-03-26T11:46:39;16.47;66.74
76759;DHT22;65701;45.588;5.186;2023-03-26T11:49:08;16.24;65.61
76759;DHT22;65701;45.588;5.186;2023-03-26T11:51:40;16.14;65.02
76759;DHT22;65701;45.588;5.186;2023-03-26T11:54:08;16.07;64.01
76759;DHT22;65701;45.588;5.186;2023-03-26T11:56:57;16.10;62.78
76759;DHT22;65701;45.588;5.186;2023-03-26T11:59:33;16.12;62.36
76759;DHT22;65701;45.588;5.186;2023-03-26T12:04:39;15.96;61.81
76759;DHT22;65701;45.588;5.186;2023-03-26T12:07:18;15.75;61.54
76759;DHT22;65701;45.588;5.186;2023-03-26T12:12:28;15.44;60.96
76759;DHT22;65701;45.588;5.186;2023-03-26T12:14:54;15.40;61.88
76759;DHT22;65701;45.588;5.186;2023-03-26T12:17:29;14.80;62.43
76759;DHT22;65701;45.588;5.186;2023-03-26T12:19:55;14.17;63.18
76759;DHT22;65701;45.588;5.186;2023-03-26T12:22:38;13.68;63.77
76759;DHT22;65701;45.588;5.186;2023-03-26T12:25:27;13.41;65.00
76759;DHT22;65701;45.588;5.186;2023-03-26T12:30:31;13.21;66.54
76759;DHT22;65701;45.588;5.186;2023-03-26T12:33:09;13.14;67.21
76759;DHT22;65701;45.588;5.186;2023-03-26T12:35:39;13.04;67.57
76759;DHT22;65701;45.588;5.186;2023-03-26T12:41:15;13.25;69.65
76759;DHT22;65701;45.588;5.186;2023-03-26T12:43:48;13.30;69.59
76759;DHT22;65701;45.588;5.186;2023-03-26T12:46:34;13.28;69.05
76759;DHT22;65701;45.588;5.186;2023-03-26T12:49:04;13.30;68.34
76759;DHT22;65701;45.588;5.186;2023-03-26T12:51:40;13.24;68.30
76759;DHT22;65701;45.588;5.186;2023-03-26T12:57:22;13.31;69.07
76759;DHT22;65701;45.588;5.186;2023-03-26T12:59:52;13.52;70.16
76759;DHT22;65701;45.588;5.186;2023-03-26T13:18:58;14.57;68.55
76759;DHT22;65701;45.588;5.186;2023-03-26T13:24:36;14.62;66.07
76759;DHT22;65701;45.588;5.186;2023-03-26T13:46:04;15.13;61.90
76759;DHT22;65701;45.588;5.186;2023-03-26T13:48:42;15.00;60.93
76759;DHT22;65701;45.588;5.186;2023-03-26T13:51:36;14.93;60.74
76759;DHT22;65701;45.588;5.186;2023-03-26T13:56:40;14.83;60.38
76759;DHT22;65701;45.588;5.186;2023-03-26T13:59:19;14.83;60.43
76759;DHT22;65701;45.588;5.186;2023-03-26T14:01:57;14.86;60.70
76759;DHT22;65701;45.588;5.186;2023-03-26T14:04:25;14.86;60.59
76759;DHT22;65701;45.588;5.186;2023-03-26T14:07:13;14.90;60.98
76759;DHT22;65701;45.588;5.186;2023-03-26T14:09:52;14.89;60.94
76759;DHT22;65701;45.588;5.186;2023-03-26T14:15:16;14.96;61.12
76759;DHT22;65701;45.588;5.186;2023-03-26T14:17:56;14.97;60.72
76759;DHT22;65701;45.588;5.186;2023-03-26T14:20:48;14.99;60.84
76759;DHT22;65701;45.588;5.186;2023-03-26T14:32:31;14.73;58.15
76759;DHT22;65701;45.588;5.186;2023-03-26T14:35:38;14.73;57.64
76759;DHT22;65701;45.588;5.186;2023-03-26T14:41:25;14.83;57.87
76759;DHT22;65701;45.588;5.186;2023-03-26T14:52:19;14.99;56.60
76759;DHT22;65701;45.588;5.186;2023-03-26T14:54:51;14.90;56.55
76759;DHT22;65701;45.588;5.186;2023-03-26T15:09:23;14.48;54.02
76759;DHT22;65701;45.588;5.186;2023-03-26T15:12:23;14.48;53.92
76759;DHT22;65701;45.588;5.186;2023-03-26T15:15:32;14.52;53.54
76759;DHT22;65701;45.588;5.186;2023-03-26T15:24:16;14.51;53.86
76759;DHT22;65701;45.588;5.186;2023-03-26T15:43:13;14.41;54.65
76759;DHT22;65701;45.588;5.186;2023-03-26T15:45:44;14.40;54.58
76759;DHT22;65701;45.588;5.186;2023-03-26T16:03:05;14.18;54.80
76759;DHT22;65701;45.588;5.186;2023-03-26T16:06:09;14.06;54.09
76759;DHT22;65701;45.588;5.186;2023-03-26T16:08:56;14.03;54.29
76759;DHT22;65701;45.588;5.186;2023-03-26T16:11:55;14.03;54.71
76759;DHT22;65701;45.588;5.186;2023-03-26T16:17:01;14.02;55.74
76759;DHT22;65701;45.588;5.186;2023-03-26T16:25:31;14.02;56.24
76759;DHT22;65701;45.588;5.186;2023-03-26T16:30:35;14.02;56.45
76759;DHT22;65701;45.588;5.186;2023-03-26T16:33:21;14.02;56.29
76759;DHT22;65701;45.588;5.186;2023-03-26T16:41:54;13.93;56.81
76759;DHT22;65701;45.588;5.186;2023-03-26T16:47:35;13.85;57.85
76759;DHT22;65701;45.588;5.186;2023-03-26T16:50:25;13.82;57.53
76759;DHT22;65701;45.588;5.186;2023-03-26T17:03:21;13.63;57.29
76759;DHT22;65701;45.588;5.186;2023-03-26T17:14:18;13.47;58.98
76759;DHT22;65701;45.588;5.186;2023-03-26T17:17:02;13.38;58.88
76759;DHT22;65701;45.588;5.186;2023-03-26T17:19:48;13.28;58.91
76759;DHT22;65701;45.588;5.186;2023-03-26T17:27:21;13.13;59.54
76759;DHT22;65701;45.588;5.186;2023-03-26T17:35:35;13.02;59.42
76759;DHT22;65701;45.588;5.186;2023-03-26T17:38:03;12.97;59.27
76759;DHT22;65701;45.588;5.186;2023-03-26T17:40:49;12.96;59.23
76759;DHT22;65701;45.588;5.186;2023-03-26T17:43:36;12.83;59.34
76759;DHT22;65701;45.588;5.186;2023-03-26T17:46:09;12.82;59.28
76759;DHT22;65701;45.588;5.186;2023-03-26T17:48:38;12.69;59.36
76759;DHT22;65701;45.588;5.186;2023-03-26T17:51:30;12.73;59.38
76759;DHT22;65701;45.588;5.186;2023-03-26T17:54:06;12.63;59.37
76759;DHT22;65701;45.588;5.186;2023-03-26T17:56:38;12.63;59.90
76759;DHT22;65701;45.588;5.186;2023-03-26T17:59:04;12.65;60.00
76759;DHT22;65701;45.588;5.186;2023-03-26T18:01:38;12.59;60.35
76759;DHT22;65701;45.588;5.186;2023-03-26T18:04:10;12.41;60.39
76759;DHT22;65701;45.588;5.186;2023-03-26T18:06:47;12.40;61.30
76759;DHT22;65701;45.588;5.186;2023-03-26T18:15:16;12.04;62.87
76759;DHT22;65701;45.588;5.186;2023-03-26T18:17:46;12.04;63.41
76759;DHT22;65701;45.588;5.186;2023-03-26T18:20:25;11.98;63.43
76759;DHT22;65701;45.588;5.186;2023-03-26T18:22:52;12.00;63.27
76759;DHT22;65701;45.588;5.186;2023-03-26T18:25:29;11.93;63.68
76759;DHT22;65701;45.588;5.186;2023-03-26T18:27:58;11.90;63.90
76759;DHT22;65701;45.588;5.186;2023-03-26T18:30:28;11.86;63.97
76759;DHT22;65701;45.588;5.186;2023-03-26T18:33:12;11.77;64.75
76759;DHT22;65701;45.588;5.186;2023-03-26T18:35:57;11.77;65.07
76759;DHT22;65701;45.588;5.186;2023-03-26T18:38:24;11.70;65.04
76759;DHT22;65701;45.588;5.186;2023-03-26T18:40:53;11.66;65.45
76759;DHT22;65701;45.588;5.186;2023-03-26T18:43:21;11.59;65.87
76759;DHT22;65701;45.588;5.186;2023-03-26T18:45:49;11.58;65.85
76759;DHT22;65701;45.588;5.186;2023-03-26T18:48:21;11.52;65.92
76759;DHT22;65701;45.588;5.186;2023-03-26T18:51:00;11.54;66.37
76759;DHT22;65701;45.588;5.186;2023-03-26T18:53:29;11.51;66.15
76759;DHT22;65701;45.588;5.186;2023-03-26T18:55:56;11.51;66.37
76759;DHT22;65701;45.588;5.186;2023-03-26T19:00:59;11.43;66.36
76759;DHT22;65701;45.588;5.186;2023-03-26T19:03:25;11.39;66.51
76759;DHT22;65701;45.588;5.186;2023-03-26T19:05:53;11.38;66.75
76759;DHT22;65701;45.588;5.186;2023-03-26T19:08:21;11.34;67.17
76759;DHT22;65701;45.588;5.186;2023-03-26T19:10:51;11.34;67.41
76759;DHT22;65701;45.588;5.186;2023-03-26T19:13:19;11.24;67.94
76759;DHT22;65701;45.588;5.186;2023-03-26T19:15:47;11.11;69.30
76759;DHT22;65701;45.588;5.186;2023-03-26T19:18:25;10.97;70.44
76759;DHT22;65701;45.588;5.186;2023-03-26T19:20:54;10.79;71.38
76759;DHT22;65701;45.588;5.186;2023-03-26T19:23:25;10.72;71.47
76759;DHT22;65701;45.588;5.186;2023-03-26T19:25:56;10.63;71.76
76759;DHT22;65701;45.588;5.186;2023-03-26T19:30:56;10.60;71.71
76759;DHT22;65701;45.588;5.186;2023-03-26T19:33:23;10.59;71.60
76759;DHT22;65701;45.588;5.186;2023-03-26T19:36:01;10.55;72.27
76759;DHT22;65701;45.588;5.186;2023-03-26T19:38:35;10.46;72.68
76759;DHT22;65701;45.588;5.186;2023-03-26T19:41:02;10.42;73.44
76759;DHT22;65701;45.588;5.186;2023-03-26T19:43:28;10.32;73.75
76759;DHT22;65701;45.588;5.186;2023-03-26T19:45:57;10.17;73.93
76759;DHT22;65701;45.588;5.186;2023-03-26T19:48:24;10.05;74.39
76759;DHT22;65701;45.588;5.186;2023-03-26T19:51:04;9.97;74.83
76759;DHT22;65701;45.588;5.186;2023-03-26T19:53:34;10.01;74.28
76759;DHT22;65701;45.588;5.186;2023-03-26T19:58:35;9.87;74.56
76759;DHT22;65701;45.588;5.186;2023-03-26T20:01:01;9.70;75.24
76759;DHT22;65701;45.588;5.186;2023-03-26T20:03:34;9.75;75.93
76759;DHT22;65701;45.588;5.186;2023-03-26T20:06:01;9.75;75.57
